Ana Sayfa
METAR-TAF:

METAR-TAF

Havaalanları :

Dinwiddie County Airport

Petersburg, Virginia, Amerika Birleşik Devletleri

Enlem: 37-11N, Boylam: 077-31W, yükseklik: 59 m

Güncel hava durumu gözlemi

Rapor saat 05:15 UTC de 7 dakika önce yapıldı.
Rüzgar kuzeydan 6 kt
Sıcaklık -5°C
Nem 86%
Basınç 1030 hPa
Görüş mesafesi: 2.8 km
1100 ft yükseklikte parçalı bulutlu
2000 ft yükseklikte parçalı çok bulutlu
2800 ft yükseklikte çok bulutlu
hafif kar

METAR: KPTB 220515Z AUTO 36006KT 1 3/4SM -SN SCT011 BKN020 OVC028 M05/M07 A3042 RMK AO2 T10551075

Saat: 00:22 (05:22 UTC)


TAF: eksik

4.000'den fazla havaalanı için hava durumu gözlemleri ve tahminleri (METAR ve TAF raporları).

Kullanılabilir istasyonlar harita üzerinde sarı ve kırmızı noktalarla gösterilir.

İstasyonun adını görmek için fareyi noktanın üzerinde gezdirin.

Sonrasında hava gözlem ve tahminlerini görmek için tıklayın.

Haritayı değiştirmek için: yaklaştırmak için siyah artı işaretli yeşil düğmeye ve uzaklaştırmak için de eksi işaretli düğmeye hızla tıklayın; bitişik haritalar için yeşil okları kullanın.


METAR-TAF: